Time;durP1;ratioP1;P1;durP2;ratioP2;P2;SDS_P1;SDS_P2;PMS_P1;PMS_P2;Temp;Humidity;BMP_temperature;BMP_pressure;BME280_temperature;BME280_humidity;BME280_pressure;Samples;Min_cycle;Max_cycle;Signal;HPM_P1;HPM_P2
2023/03/26 00:01:35;;;;;;;1.73;1.20;;;;;;;;;;5073494;28;20475;-73
2023/03/26 00:04:04;;;;;;;3.30;1.40;;;;;;;;;;5073576;28;20462;-73
2023/03/26 00:06:33;;;;;;;2.47;1.50;;;;;;;;;;5073152;28;20455;-73
2023/03/26 00:09:00;;;;;;;6.83;3.80;;;;;;;;;;5073687;28;20455;-73
2023/03/26 00:11:29;;;;;;;6.83;1.80;;;;;;;;;;5073485;28;20476;-73
2023/03/26 00:13:56;;;;;;;4.53;2.93;;;;;;;;;;5073704;28;20471;-74
2023/03/26 00:16:24;;;;;;;2.33;1.67;;;;;;;;;;5073952;28;20505;-73
2023/03/26 00:18:52;;;;;;;3.17;1.70;;;;;;;;;;5073507;28;20448;-73
2023/03/26 00:21:25;;;;;;;5.60;1.83;;;;;;;;;;5073554;28;20467;-73
2023/03/26 00:23:52;;;;;;;1.97;1.23;;;;;;;;;;5073412;28;20461;-72
2023/03/26 00:26:19;;;;;;;4.90;2.47;;;;;;;;;;5073509;28;20484;-73
2023/03/26 00:28:49;;;;;;;3.60;1.73;;;;;;;;;;5073391;28;20448;-72
2023/03/26 00:31:16;;;;;;;1.80;1.23;;;;;;;;;;5073088;28;20567;-72
2023/03/26 00:33:44;;;;;;;2.10;1.50;;;;;;;;;;5073501;28;20459;-73
2023/03/26 00:36:13;;;;;;;1.87;1.33;;;;;;;;;;5073129;28;20456;-72
2023/03/26 00:38:42;;;;;;;5.20;1.83;;;;;;;;;;5075759;28;20463;-73
2023/03/26 00:41:21;;;;;;;2.90;1.80;;;;;;;;;;5077014;28;20835;-73
2023/03/26 00:43:49;;;;;;;2.00;1.50;;;;;;;;;;5076944;28;20451;-73
2023/03/26 00:46:17;;;;;;;1.90;1.40;;;;;;;;;;5076878;28;20546;-72
2023/03/26 00:48:44;;;;;;;2.70;1.43;;;;;;;;;;5077254;28;20448;-73
2023/03/26 00:51:14;;;;;;;4.73;1.53;;;;;;;;;;5076702;28;20494;-73
2023/03/26 00:53:43;;;;;;;4.57;1.50;;;;;;;;;;5077008;28;20471;-73
2023/03/26 00:56:10;;;;;;;7.47;2.23;;;;;;;;;;5077211;28;20467;-73
2023/03/26 00:58:37;;;;;;;2.43;1.37;;;;;;;;;;5077201;28;20452;-72
2023/03/26 01:01:06;;;;;;;3.90;1.50;;;;;;;;;;5076708;28;20479;-72
2023/03/26 01:03:34;;;;;;;4.60;2.23;;;;;;;;;;5076779;28;20463;-73
2023/03/26 01:06:03;;;;;;;2.20;1.60;;;;;;;;;;5075605;28;20456;-72
2023/03/26 01:08:31;;;;;;;2.90;1.77;;;;;;;;;;5075909;28;20542;-72
2023/03/26 01:11:06;;;;;;;4.13;1.77;;;;;;;;;;5075946;28;20495;-72
2023/03/26 01:13:34;;;;;;;4.07;1.80;;;;;;;;;;5075922;28;20549;-72
2023/03/26 01:16:01;;;;;;;3.10;1.80;;;;;;;;;;5075694;28;20817;-72
2023/03/26 01:18:32;;;;;;;4.13;1.40;;;;;;;;;;5075538;28;20463;-72
2023/03/26 01:21:03;;;;;;;3.10;2.17;;;;;;;;;;5075448;28;20463;-72
2023/03/26 01:23:34;;;;;;;5.63;1.80;;;;;;;;;;5075479;28;20452;-72
2023/03/26 01:26:09;;;;;;;2.60;1.83;;;;;;;;;;5075415;28;20448;-72
2023/03/26 01:28:40;;;;;;;5.63;1.77;;;;;;;;;;5075601;28;20457;-72
2023/03/26 01:31:11;;;;;;;9.53;3.20;;;;;;;;;;5075257;28;21012;-72
2023/03/26 01:33:43;;;;;;;4.73;3.20;;;;;;;;;;5075281;28;20460;-72
2023/03/26 01:36:15;;;;;;;7.50;2.03;;;;;;;;;;5075290;28;20835;-72
2023/03/26 01:38:47;;;;;;;3.43;1.57;;;;;;;;;;5075418;28;20468;-72
2023/03/26 01:41:18;;;;;;;5.10;2.40;;;;;;;;;;5075139;28;20472;-72
2023/03/26 01:43:47;;;;;;;3.20;1.73;;;;;;;;;;5075199;28;20459;-72
2023/03/26 01:46:15;;;;;;;6.93;1.43;;;;;;;;;;5075235;28;20944;-72
2023/03/26 01:48:43;;;;;;;2.00;1.40;;;;;;;;;;5074963;28;20456;-72
2023/03/26 01:51:11;;;;;;;2.60;1.30;;;;;;;;;;5074497;28;20883;-72
2023/03/26 01:53:41;;;;;;;4.13;1.60;;;;;;;;;;5074996;28;20819;-71
2023/03/26 01:56:12;;;;;;;2.37;1.83;;;;;;;;;;5074886;28;20539;-72
2023/03/26 01:58:46;;;;;;;17.80;2.07;;;;;;;;;;5075092;28;20447;-72
2023/03/26 02:01:18;;;;;;;4.00;1.80;;;;;;;;;;5074719;28;20472;-72
2023/03/26 02:03:48;;;;;;;3.17;1.97;;;;;;;;;;5074798;28;20498;-72
2023/03/26 02:06:17;;;;;;;3.63;1.97;;;;;;;;;;5074593;28;20470;-72
2023/03/26 02:08:47;;;;;;;6.53;1.87;;;;;;;;;;5075019;28;20809;-72
2023/03/26 02:11:15;;;;;;;5.23;1.37;;;;;;;;;;5074519;28;21015;-72
2023/03/26 02:13:44;;;;;;;4.57;1.80;;;;;;;;;;5074752;28;20828;-72
2023/03/26 02:16:15;;;;;;;4.10;2.20;;;;;;;;;;5074505;28;20819;-72
2023/03/26 02:18:42;;;;;;;2.97;1.80;;;;;;;;;;5074629;28;20459;-72
2023/03/26 02:21:11;;;;;;;3.00;1.50;;;;;;;;;;5074362;28;20525;-72
2023/03/26 02:23:39;;;;;;;2.67;1.77;;;;;;;;;;5074385;28;20929;-72
2023/03/26 02:26:06;;;;;;;5.73;2.40;;;;;;;;;;5074340;28;20488;-72
2023/03/26 02:28:33;;;;;;;3.10;1.27;;;;;;;;;;5074334;28;20448;-72
2023/03/26 02:31:02;;;;;;;6.23;2.20;;;;;;;;;;5074377;28;20498;-72
2023/03/26 02:33:29;;;;;;;4.67;1.70;;;;;;;;;;5074329;28;20463;-73
2023/03/26 02:35:58;;;;;;;11.57;2.00;;;;;;;;;;5074941;28;20462;-72
2023/03/26 02:38:25;;;;;;;6.57;1.57;;;;;;;;;;5074801;28;20513;-72
2023/03/26 02:40:52;;;;;;;2.13;1.50;;;;;;;;;;5075051;28;20836;-72
2023/03/26 02:43:19;;;;;;;3.93;1.73;;;;;;;;;;5074863;28;20864;-72
2023/03/26 02:45:46;;;;;;;4.57;2.43;;;;;;;;;;5074545;28;20455;-72
2023/03/26 02:48:15;;;;;;;5.83;1.80;;;;;;;;;;5075028;28;20463;-72
2023/03/26 02:50:42;;;;;;;1.90;1.40;;;;;;;;;;5075063;28;20495;-72
2023/03/26 02:53:10;;;;;;;6.20;2.20;;;;;;;;;;5075218;28;20452;-73
2023/03/26 02:55:37;;;;;;;2.60;1.60;;;;;;;;;;5074751;28;20456;-72
2023/03/26 02:58:05;;;;;;;6.83;2.47;;;;;;;;;;5075002;28;20448;-73
2023/03/26 03:00:32;;;;;;;3.47;1.70;;;;;;;;;;5074284;28;21083;-72
2023/03/26 03:03:02;;;;;;;5.40;1.60;;;;;;;;;;5074536;28;20456;-72
2023/03/26 03:05:31;;;;;;;2.83;1.80;;;;;;;;;;5073761;28;20793;-72
2023/03/26 03:07:58;;;;;;;2.60;1.30;;;;;;;;;;5074731;28;20455;-72
2023/03/26 03:10:26;;;;;;;3.77;2.00;;;;;;;;;;5074139;28;20491;-72
2023/03/26 03:12:53;;;;;;;2.57;1.70;;;;;;;;;;5074551;28;20463;-72
2023/03/26 03:15:20;;;;;;;1.87;1.43;;;;;;;;;;5074378;28;20458;-72
2023/03/26 03:17:48;;;;;;;4.30;1.87;;;;;;;;;;5074476;28;20458;-72
2023/03/26 03:20:15;;;;;;;2.00;1.50;;;;;;;;;;5075048;28;20452;-73
2023/03/26 03:22:44;;;;;;;2.00;1.50;;;;;;;;;;5074837;28;20463;-72
2023/03/26 03:25:13;;;;;;;3.30;1.83;;;;;;;;;;5074153;28;20832;-72
2023/03/26 03:27:41;;;;;;;4.03;1.77;;;;;;;;;;5073696;28;20456;-71
2023/03/26 03:30:09;;;;;;;3.10;1.63;;;;;;;;;;5073179;28;20462;-71
2023/03/26 03:32:36;;;;;;;4.90;1.60;;;;;;;;;;5072938;28;20820;-71
2023/03/26 03:35:04;;;;;;;8.07;2.20;;;;;;;;;;5073034;28;20952;-72
2023/03/26 03:37:31;;;;;;;7.80;3.03;;;;;;;;;;5073110;28;20456;-71
2023/03/26 03:40:00;;;;;;;5.90;2.80;;;;;;;;;;5072941;28;20937;-71
2023/03/26 03:42:27;;;;;;;6.20;2.47;;;;;;;;;;5072998;28;20471;-71
2023/03/26 03:44:54;;;;;;;5.83;2.50;;;;;;;;;;5072909;28;20802;-71
2023/03/26 03:47:21;;;;;;;15.77;3.00;;;;;;;;;;5072841;28;20472;-71
2023/03/26 03:49:50;;;;;;;7.23;2.60;;;;;;;;;;5072948;28;20451;-71
2023/03/26 03:52:17;;;;;;;4.53;2.90;;;;;;;;;;5072732;28;20511;-72
2023/03/26 03:54:44;;;;;;;3.03;1.77;;;;;;;;;;5072707;28;20487;-72
2023/03/26 03:57:14;;;;;;;7.93;2.50;;;;;;;;;;5072613;28;20471;-72
2023/03/26 03:59:42;;;;;;;5.63;2.10;;;;;;;;;;5072870;28;20464;-72
2023/03/26 04:02:09;;;;;;;3.30;1.97;;;;;;;;;;5072656;28;20479;-72
2023/03/26 04:04:37;;;;;;;5.73;2.70;;;;;;;;;;5072661;28;20484;-72
2023/03/26 04:07:05;;;;;;;10.50;3.83;;;;;;;;;;5072445;28;20460;-72
2023/03/26 04:09:32;;;;;;;3.63;2.50;;;;;;;;;;5072928;28;20451;-72
2023/03/26 04:11:59;;;;;;;4.23;2.20;;;;;;;;;;5072782;28;20499;-72
2023/03/26 04:14:27;;;;;;;3.27;2.30;;;;;;;;;;5076412;28;20447;-72
2023/03/26 04:16:55;;;;;;;3.70;1.90;;;;;;;;;;5076812;28;20452;-72
2023/03/26 04:19:22;;;;;;;6.60;2.57;;;;;;;;;;5076704;28;20563;-72
2023/03/26 04:21:49;;;;;;;4.37;2.17;;;;;;;;;;5076699;28;21011;-72
2023/03/26 04:24:16;;;;;;;10.40;4.80;;;;;;;;;;5076444;28;20451;-72
2023/03/26 04:26:43;;;;;;;11.27;5.17;;;;;;;;;;5076733;28;20466;-72
2023/03/26 04:29:15;;;;;;;3.17;2.03;;;;;;;;;;5076559;28;20462;-72
2023/03/26 04:31:45;;;;;;;6.90;1.70;;;;;;;;;;5076229;28;20872;-72
2023/03/26 04:34:18;;;;;;;7.63;2.70;;;;;;;;;;5076100;28;21022;-72
2023/03/26 04:36:45;;;;;;;3.67;1.97;;;;;;;;;;5076436;28;20539;-72
2023/03/26 04:39:13;;;;;;;7.77;3.20;;;;;;;;;;5076336;28;20455;-72
2023/03/26 04:41:40;;;;;;;5.37;3.33;;;;;;;;;;5076286;28;21006;-72
2023/03/26 04:44:07;;;;;;;7.83;3.47;;;;;;;;;;5076153;28;20455;-72
2023/03/26 04:46:34;;;;;;;4.10;2.43;;;;;;;;;;5076472;28;20825;-72
2023/03/26 04:49:02;;;;;;;8.60;2.70;;;;;;;;;;5076030;28;20455;-72
2023/03/26 04:51:36;;;;;;;5.77;2.37;;;;;;;;;;5076019;28;20491;-72
2023/03/26 04:54:04;;;;;;;9.43;2.27;;;;;;;;;;5075860;28;20505;-71
2023/03/26 04:56:36;;;;;;;7.33;3.00;;;;;;;;;;5076042;28;20896;-72
2023/03/26 04:59:04;;;;;;;9.50;3.60;;;;;;;;;;5076035;28;20451;-72
2023/03/26 05:01:31;;;;;;;9.17;2.73;;;;;;;;;;5075746;28;20468;-72
2023/03/26 05:03:59;;;;;;;8.50;2.90;;;;;;;;;;5075727;28;21019;-72
2023/03/26 05:06:29;;;;;;;4.50;2.30;;;;;;;;;;5075575;28;20466;-72
2023/03/26 05:08:56;;;;;;;14.23;2.57;;;;;;;;;;5075804;28;20455;-72
2023/03/26 05:11:23;;;;;;;3.83;2.17;;;;;;;;;;5075724;28;21008;-72
2023/03/26 05:13:50;;;;;;;5.90;2.00;;;;;;;;;;5075829;28;20444;-72
2023/03/26 05:16:17;;;;;;;5.03;2.40;;;;;;;;;;5075682;28;20456;-72
2023/03/26 05:18:45;;;;;;;6.97;2.50;;;;;;;;;;5075778;28;20460;-72
2023/03/26 05:21:12;;;;;;;7.23;2.17;;;;;;;;;;5075421;28;20499;-72
2023/03/26 05:23:41;;;;;;;4.63;1.70;;;;;;;;;;5074892;28;20451;-72
2023/03/26 05:26:09;;;;;;;5.47;2.10;;;;;;;;;;5074902;28;20448;-72
2023/03/26 05:28:36;;;;;;;9.10;1.90;;;;;;;;;;5075560;28;20808;-72
2023/03/26 05:31:04;;;;;;;3.30;1.87;;;;;;;;;;5075100;28;21007;-72
2023/03/26 05:33:31;;;;;;;4.10;1.80;;;;;;;;;;5074313;28;20461;-72
2023/03/26 05:36:02;;;;;;;2.90;1.73;;;;;;;;;;5075230;28;20456;-72
2023/03/26 05:38:29;;;;;;;3.50;1.70;;;;;;;;;;5075182;28;20458;-72
2023/03/26 05:41:01;;;;;;;4.43;1.50;;;;;;;;;;5075243;28;20486;-72
2023/03/26 05:43:29;;;;;;;6.27;1.57;;;;;;;;;;5074998;28;20479;-72
2023/03/26 05:45:56;;;;;;;5.53;2.20;;;;;;;;;;5075239;28;20447;-72
2023/03/26 05:48:24;;;;;;;5.37;1.80;;;;;;;;;;5075092;28;20822;-72
2023/03/26 05:50:51;;;;;;;3.87;2.43;;;;;;;;;;5075095;28;20965;-73
2023/03/26 05:53:19;;;;;;;8.30;3.40;;;;;;;;;;5074883;28;20448;-73
2023/03/26 05:55:49;;;;;;;7.00;3.70;;;;;;;;;;5074803;28;20488;-73
2023/03/26 05:58:17;;;;;;;4.23;2.57;;;;;;;;;;5074793;28;20462;-73
2023/03/26 06:00:48;;;;;;;9.80;2.77;;;;;;;;;;5074778;28;20475;-73
2023/03/26 06:03:15;;;;;;;5.80;3.00;;;;;;;;;;5074938;28;20447;-72
2023/03/26 06:05:43;;;;;;;5.17;2.20;;;;;;;;;;5074173;28;20944;-73
2023/03/26 06:08:10;;;;;;;8.47;3.10;;;;;;;;;;5074775;28;20463;-73
2023/03/26 06:10:38;;;;;;;10.10;2.30;;;;;;;;;;5074459;28;20480;-73
2023/03/26 06:13:05;;;;;;;6.77;2.87;;;;;;;;;;5074508;28;20537;-72
2023/03/26 06:15:34;;;;;;;9.00;2.40;;;;;;;;;;5073816;28;20448;-73
2023/03/26 06:18:01;;;;;;;4.50;1.97;;;;;;;;;;5074437;28;20452;-72
2023/03/26 06:20:28;;;;;;;3.80;1.90;;;;;;;;;;5074349;28;20448;-73
2023/03/26 06:22:55;;;;;;;8.07;2.27;;;;;;;;;;5074325;28;20436;-73
2023/03/26 06:25:22;;;;;;;3.60;2.10;;;;;;;;;;5074086;28;20817;-73
2023/03/26 06:27:50;;;;;;;4.80;1.70;;;;;;;;;;5074377;28;20440;-73
2023/03/26 06:30:17;;;;;;;3.50;2.30;;;;;;;;;;5074019;28;20458;-73
2023/03/26 06:32:45;;;;;;;5.77;4.30;;;;;;;;;;5073954;28;20483;-72
2023/03/26 06:35:13;;;;;;;4.83;3.30;;;;;;;;;;5073688;28;20459;-73
2023/03/26 06:37:41;;;;;;;6.37;3.20;;;;;;;;;;5074178;28;20456;-73
2023/03/26 06:40:08;;;;;;;5.23;2.17;;;;;;;;;;5073914;28;20455;-72
2023/03/26 06:42:37;;;;;;;5.30;2.03;;;;;;;;;;5073944;28;20543;-73
2023/03/26 06:45:04;;;;;;;4.57;1.80;;;;;;;;;;5073788;28;20451;-73
2023/03/26 06:47:32;;;;;;;11.17;3.10;;;;;;;;;;5073817;28;20444;-73
2023/03/26 06:50:00;;;;;;;9.13;3.27;;;;;;;;;;5073912;28;20941;-73
2023/03/26 06:52:28;;;;;;;17.17;5.80;;;;;;;;;;5073581;28;20514;-72
2023/03/26 06:54:55;;;;;;;8.07;3.63;;;;;;;;;;5073623;28;20459;-73
2023/03/26 06:57:22;;;;;;;8.10;2.77;;;;;;;;;;5073648;28;20448;-72
2023/03/26 06:59:50;;;;;;;4.10;1.90;;;;;;;;;;5073770;28;20816;-73
2023/03/26 07:02:17;;;;;;;5.20;2.40;;;;;;;;;;5073299;28;20471;-73
2023/03/26 07:04:44;;;;;;;7.93;2.23;;;;;;;;;;5073380;28;20471;-73
2023/03/26 07:07:13;;;;;;;4.40;2.53;;;;;;;;;;5073184;28;20451;-73
2023/03/26 07:09:40;;;;;;;4.50;2.47;;;;;;;;;;5073704;28;20448;-73
2023/03/26 07:12:07;;;;;;;3.27;1.93;;;;;;;;;;5073522;28;20484;-73
2023/03/26 07:14:37;;;;;;;4.57;1.90;;;;;;;;;;5073147;28;20458;-73
2023/03/26 07:17:04;;;;;;;4.67;2.40;;;;;;;;;;5073805;28;20544;-73
2023/03/26 07:19:32;;;;;;;3.90;2.03;;;;;;;;;;5073497;28;20463;-73
2023/03/26 07:21:59;;;;;;;6.93;1.70;;;;;;;;;;5073355;28;20466;-73
2023/03/26 07:24:28;;;;;;;4.80;1.50;;;;;;;;;;5073062;28;20451;-73
2023/03/26 07:27:01;;;;;;;7.27;2.30;;;;;;;;;;5072976;28;20460;-73
2023/03/26 07:29:32;;;;;;;4.50;1.80;;;;;;;;;;5073161;28;20929;-73
2023/03/26 07:32:03;;;;;;;4.90;2.30;;;;;;;;;;5072929;28;20499;-73
2023/03/26 07:34:37;;;;;;;11.17;5.53;;;;;;;;;;5072963;28;20459;-73
2023/03/26 07:37:08;;;;;;;20.77;9.03;;;;;;;;;;5073242;28;20567;-73
2023/03/26 07:39:44;;;;;;;29.10;12.37;;;;;;;;;;5073167;28;20463;-73
2023/03/26 07:42:17;;;;;;;34.60;15.87;;;;;;;;;;5073106;28;20973;-72
2023/03/26 07:44:49;;;;;;;14.93;6.83;;;;;;;;;;5073420;28;20466;-73
2023/03/26 07:47:24;;;;;;;9.10;5.43;;;;;;;;;;5072453;28;20463;-73
2023/03/26 07:49:52;;;;;;;5.30;3.00;;;;;;;;;;5073287;28;21002;-73
2023/03/26 07:52:19;;;;;;;4.30;1.70;;;;;;;;;;5072841;28;20487;-73
2023/03/26 07:54:48;;;;;;;8.20;2.30;;;;;;;;;;5073167;28;20929;-70
2023/03/26 07:57:19;;;;;;;7.00;2.17;;;;;;;;;;5072944;28;20463;-71
2023/03/26 07:59:48;;;;;;;6.83;1.97;;;;;;;;;;5073120;28;20458;-71
2023/03/26 08:02:31;;;;;;;5.53;2.43;;;;;;;;;;5072973;28;20896;-71
2023/03/26 08:05:09;;;;;;;3.90;1.90;;;;;;;;;;5072700;28;20448;-70
2023/03/26 08:07:43;;;;;;;4.70;1.97;;;;;;;;;;5072953;28;21001;-71
2023/03/26 08:10:15;;;;;;;3.43;1.83;;;;;;;;;;5072225;28;20471;-70
2023/03/26 08:12:46;;;;;;;5.83;2.23;;;;;;;;;;5072850;28;20483;-71
2023/03/26 08:15:16;;;;;;;5.63;2.10;;;;;;;;;;5072649;28;20451;-71
2023/03/26 08:17:45;;;;;;;5.53;3.87;;;;;;;;;;5073106;28;20459;-71
2023/03/26 08:20:19;;;;;;;4.80;2.23;;;;;;;;;;5073091;28;20459;-71
2023/03/26 08:22:50;;;;;;;2.37;1.80;;;;;;;;;;5073145;28;20916;-71
2023/03/26 08:25:23;;;;;;;2.07;1.33;;;;;;;;;;5072539;28;20427;-71
2023/03/26 08:27:55;;;;;;;4.23;2.63;;;;;;;;;;5073023;28;20427;-70
2023/03/26 08:30:23;;;;;;;9.97;2.00;;;;;;;;;;5072208;28;20471;-70
2023/03/26 08:32:53;;;;;;;2.63;1.30;;;;;;;;;;5072535;28;20483;-70
2023/03/26 08:35:20;;;;;;;2.70;1.87;;;;;;;;;;5072602;28;20447;-70
2023/03/26 08:37:48;;;;;;;5.83;1.60;;;;;;;;;;5072909;28;20454;-72
2023/03/26 08:40:18;;;;;;;4.23;1.47;;;;;;;;;;5073243;28;20510;-72
2023/03/26 08:43:02;;;;;;;2.93;1.57;;;;;;;;;;5073526;28;20451;-72
2023/03/26 08:45:50;;;;;;;7.00;1.50;;;;;;;;;;5073437;28;20455;-72
2023/03/26 08:48:35;;;;;;;4.80;2.20;;;;;;;;;;5072969;28;20873;-72
2023/03/26 08:51:17;;;;;;;3.40;1.60;;;;;;;;;;5073267;28;20526;-72
2023/03/26 08:54:04;;;;;;;7.07;1.73;;;;;;;;;;5064255;28;20495;-73
2023/03/26 08:56:33;;;;;;;4.20;1.63;;;;;;;;;;5073141;28;20927;-72
2023/03/26 08:59:24;;;;;;;2.80;1.50;;;;;;;;;;5074796;28;20470;-72
2023/03/26 09:02:02;;;;;;;3.50;1.57;;;;;;;;;;5076708;28;20470;-72
2023/03/26 09:04:49;;;;;;;3.47;1.63;;;;;;;;;;5076408;28;20947;-72
2023/03/26 09:07:34;;;;;;;4.80;1.60;;;;;;;;;;5075960;28;20460;-72
2023/03/26 09:10:16;;;;;;;3.17;1.90;;;;;;;;;;5076855;28;20790;-72
2023/03/26 09:13:01;;;;;;;3.93;1.70;;;;;;;;;;5076881;28;21026;-72
2023/03/26 09:15:42;;;;;;;4.60;1.90;;;;;;;;;;5076527;28;20971;-72
2023/03/26 09:18:22;;;;;;;3.17;1.30;;;;;;;;;;5076956;28;20452;-72
2023/03/26 09:21:08;;;;;;;3.70;1.50;;;;;;;;;;5076597;28;20471;-72
2023/03/26 09:23:44;;;;;;;3.50;1.47;;;;;;;;;;5076594;28;20447;-72
2023/03/26 09:26:19;;;;;;;5.47;1.47;;;;;;;;;;5074106;28;20491;-73
2023/03/26 09:29:05;;;;;;;3.60;1.50;;;;;;;;;;5075189;28;20451;-72
2023/03/26 09:31:50;;;;;;;3.50;1.50;;;;;;;;;;5074853;28;20996;-75
2023/03/26 09:34:26;;;;;;;8.60;1.63;;;;;;;;;;5074493;28;20498;-73
2023/03/26 09:36:56;;;;;;;8.17;1.80;;;;;;;;;;5074443;28;20547;-72
2023/03/26 09:39:38;;;;;;;6.07;1.80;;;;;;;;;;5074054;28;20494;-73
2023/03/26 09:42:15;;;;;;;3.20;1.40;;;;;;;;;;5073345;28;20502;-73
2023/03/26 09:44:52;;;;;;;3.00;1.30;;;;;;;;;;5075024;28;20551;-72
2023/03/26 09:47:33;;;;;;;2.57;1.40;;;;;;;;;;5074968;28;20451;-72
2023/03/26 09:50:09;;;;;;;5.13;1.73;;;;;;;;;;5075007;28;20459;-72
2023/03/26 09:52:45;;;;;;;2.60;1.50;;;;;;;;;;5074982;28;20564;-72
2023/03/26 09:55:34;;;;;;;7.33;1.53;;;;;;;;;;5074528;28;20439;-73
2023/03/26 09:58:14;;;;;;;4.53;1.80;;;;;;;;;;5074655;28;20471;-73
2023/03/26 10:00:45;;;;;;;2.40;1.30;;;;;;;;;;5075360;28;21037;-72
2023/03/26 10:03:21;;;;;;;3.40;1.47;;;;;;;;;;5074903;28;20967;-72
2023/03/26 10:05:53;;;;;;;3.43;1.50;;;;;;;;;;5074795;28;20451;-72
2023/03/26 10:08:50;;;;;;;1.97;1.47;;;;;;;;;;5074503;28;20464;-72
2023/03/26 10:11:20;;;;;;;3.23;1.20;;;;;;;;;;5051948;28;20504;-72
2023/03/26 10:13:55;;;;;;;3.93;1.63;;;;;;;;;;5069424;28;20858;-72
2023/03/26 10:16:26;;;;;;;3.00;2.03;;;;;;;;;;5074225;28;21009;-72
2023/03/26 10:19:00;;;;;;;3.57;1.50;;;;;;;;;;5074194;28;20953;-72
2023/03/26 10:21:37;;;;;;;8.60;2.67;;;;;;;;;;5074150;28;20480;-72
2023/03/26 10:24:14;;;;;;;5.70;1.60;;;;;;;;;;5074264;28;20475;-73
2023/03/26 10:26:53;;;;;;;2.30;1.43;;;;;;;;;;5073821;28;20436;-72
2023/03/26 10:29:30;;;;;;;4.60;1.43;;;;;;;;;;5073492;28;20459;-72
2023/03/26 10:32:04;;;;;;;4.10;2.27;;;;;;;;;;5073981;28;20490;-72
2023/03/26 10:34:47;;;;;;;3.63;1.50;;;;;;;;;;5074447;28;20493;-72
2023/03/26 10:37:19;;;;;;;3.20;2.00;;;;;;;;;;5073657;28;20452;-72
2023/03/26 10:40:16;;;;;;;5.60;2.53;;;;;;;;;;5074451;28;20455;-72
2023/03/26 10:42:51;;;;;;;6.70;2.80;;;;;;;;;;5052881;28;20449;-72
2023/03/26 10:45:39;;;;;;;5.13;3.33;;;;;;;;;;5070367;28;20471;-72
2023/03/26 10:48:30;;;;;;;3.60;2.17;;;;;;;;;;5074517;28;20474;-72
2023/03/26 10:51:18;;;;;;;11.30;2.50;;;;;;;;;;5069013;28;20562;-72
2023/03/26 10:53:50;;;;;;;3.70;2.30;;;;;;;;;;5072740;28;20499;-72
2023/03/26 10:56:21;;;;;;;8.13;2.40;;;;;;;;;;5074877;28;20479;-72
2023/03/26 10:58:48;;;;;;;6.17;2.53;;;;;;;;;;5074592;28;20936;-72
2023/03/26 11:01:20;;;;;;;4.23;2.63;;;;;;;;;;5074560;28;20475;-72
2023/03/26 11:03:50;;;;;;;5.33;2.50;;;;;;;;;;5074727;28;20436;-72
2023/03/26 11:06:38;;;;;;;4.60;2.77;;;;;;;;;;5074701;28;20501;-72
2023/03/26 11:09:16;;;;;;;4.70;2.90;;;;;;;;;;5074478;28;20509;-72
2023/03/26 11:11:46;;;;;;;6.10;3.17;;;;;;;;;;5074769;28;20844;-72
2023/03/26 11:14:16;;;;;;;6.30;3.70;;;;;;;;;;5074056;28;20545;-72
2023/03/26 11:16:49;;;;;;;5.43;2.60;;;;;;;;;;5074321;28;20487;-72
2023/03/26 11:19:18;;;;;;;6.80;3.70;;;;;;;;;;5074309;28;20513;-72
2023/03/26 11:21:52;;;;;;;6.63;3.10;;;;;;;;;;5074056;28;20503;-72
2023/03/26 11:24:34;;;;;;;3.70;3.20;;;;;;;;;;5073831;28;20450;-72
2023/03/26 11:27:05;;;;;;;4.50;2.33;;;;;;;;;;5073346;28;20462;-72
2023/03/26 11:29:39;;;;;;;3.80;2.57;;;;;;;;;;5074425;28;20463;-72
2023/03/26 11:32:10;;;;;;;2.83;1.80;;;;;;;;;;5074050;28;20486;-73
2023/03/26 11:34:39;;;;;;;9.50;2.07;;;;;;;;;;5073648;28;20498;-72
2023/03/26 11:37:08;;;;;;;4.90;1.90;;;;;;;;;;5072426;28;20456;-73
2023/03/26 11:39:41;;;;;;;5.90;2.17;;;;;;;;;;5072799;28;20869;-72
2023/03/26 11:42:12;;;;;;;4.47;2.20;;;;;;;;;;5072982;28;20845;-73
2023/03/26 11:44:41;;;;;;;3.37;2.47;;;;;;;;;;5072860;28;20517;-72
2023/03/26 11:47:11;;;;;;;3.40;2.10;;;;;;;;;;5072991;28;20818;-72
2023/03/26 11:49:38;;;;;;;3.90;2.27;;;;;;;;;;5073309;28;20456;-73
2023/03/26 11:52:06;;;;;;;4.87;3.00;;;;;;;;;;5073764;28;20558;-72
2023/03/26 11:54:33;;;;;;;4.13;2.10;;;;;;;;;;5073289;28;20531;-72
2023/03/26 11:57:03;;;;;;;10.20;2.83;;;;;;;;;;5074349;28;20456;-73
2023/03/26 11:59:34;;;;;;;3.87;2.40;;;;;;;;;;5073660;28;20452;-73
2023/03/26 12:02:17;;;;;;;7.00;3.10;;;;;;;;;;5073904;28;20479;-74
2023/03/26 12:04:45;;;;;;;4.70;2.43;;;;;;;;;;5073646;28;20458;-73
2023/03/26 12:07:16;;;;;;;5.03;3.33;;;;;;;;;;5073106;28;20455;-73
2023/03/26 12:09:50;;;;;;;3.73;2.33;;;;;;;;;;5073844;28;20455;-73
2023/03/26 12:12:18;;;;;;;2.97;2.30;;;;;;;;;;5073347;28;20479;-72
2023/03/26 12:14:47;;;;;;;2.70;1.77;;;;;;;;;;5072034;28;20486;-73
2023/03/26 12:17:15;;;;;;;3.40;1.67;;;;;;;;;;5071937;28;20452;-73
2023/03/26 12:19:43;;;;;;;4.43;1.80;;;;;;;;;;5072568;28;20458;-73
2023/03/26 12:22:30;;;;;;;2.77;2.00;;;;;;;;;;5072708;28;20479;-73
2023/03/26 12:25:17;;;;;;;5.23;3.27;;;;;;;;;;5072531;28;20553;-73
2023/03/26 12:27:45;;;;;;;2.50;1.90;;;;;;;;;;5072333;28;20527;-71
2023/03/26 12:30:21;;;;;;;2.00;1.50;;;;;;;;;;5072713;28;20545;-73
2023/03/26 12:32:49;;;;;;;3.00;1.70;;;;;;;;;;5073720;28;20446;-73
2023/03/26 12:35:18;;;;;;;5.07;1.83;;;;;;;;;;5076607;28;20860;-74
2023/03/26 12:37:47;;;;;;;5.37;2.30;;;;;;;;;;5076799;28;20495;-73
2023/03/26 12:40:28;;;;;;;3.27;2.30;;;;;;;;;;5062952;28;20477;-73
2023/03/26 12:42:56;;;;;;;3.47;1.97;;;;;;;;;;5055664;28;20459;-73
2023/03/26 12:45:29;;;;;;;2.10;1.10;;;;;;;;;;5055450;28;20500;-73
2023/03/26 12:47:57;;;;;;;4.17;1.80;;;;;;;;;;5056441;28;20543;-73
2023/03/26 12:50:29;;;;;;;4.37;1.77;;;;;;;;;;5057634;28;20543;-73
2023/03/26 12:53:03;;;;;;;2.03;1.47;;;;;;;;;;5056909;28;20487;-73
2023/03/26 12:55:37;;;;;;;4.27;1.50;;;;;;;;;;5057022;28;20448;-74
2023/03/26 12:58:10;;;;;;;1.83;1.50;;;;;;;;;;5056195;28;20480;-73
2023/03/26 13:00:45;;;;;;;1.83;1.43;;;;;;;;;;5055218;28;20469;-73
2023/03/26 13:03:20;;;;;;;2.23;1.77;;;;;;;;;;5055392;28;20444;-74
2023/03/26 13:06:05;;;;;;;2.30;1.60;;;;;;;;;;5054565;28;21046;-73
2023/03/26 13:08:51;;;;;;;3.70;1.77;;;;;;;;;;5054599;28;20460;-74
2023/03/26 13:11:22;;;;;;;2.60;1.63;;;;;;;;;;5055543;28;20468;-74
2023/03/26 13:14:00;;;;;;;3.17;1.47;;;;;;;;;;5056180;28;20484;-74
2023/03/26 13:16:32;;;;;;;2.57;1.90;;;;;;;;;;5055657;28;20475;-74
2023/03/26 13:19:02;;;;;;;3.80;1.90;;;;;;;;;;5056293;28;20457;-74
2023/03/26 13:21:33;;;;;;;3.80;2.33;;;;;;;;;;5056821;28;20473;-73
2023/03/26 13:24:04;;;;;;;3.00;1.83;;;;;;;;;;5061008;28;20483;-73
2023/03/26 13:26:40;;;;;;;3.80;1.60;;;;;;;;;;5078149;28;20456;-73
2023/03/26 13:29:16;;;;;;;2.50;1.53;;;;;;;;;;5078440;28;20459;-73
2023/03/26 13:31:50;;;;;;;2.87;1.30;;;;;;;;;;5078070;28;20510;-73
2023/03/26 13:34:22;;;;;;;3.10;1.80;;;;;;;;;;5078217;28;20491;-73
2023/03/26 13:36:58;;;;;;;1.70;1.53;;;;;;;;;;5077886;28;20455;-73
2023/03/26 13:39:28;;;;;;;4.60;1.90;;;;;;;;;;5077730;28;20462;-73
2023/03/26 13:42:03;;;;;;;2.10;1.60;;;;;;;;;;5077353;28;20478;-74
2023/03/26 13:44:34;;;;;;;3.00;1.60;;;;;;;;;;5077045;28;20447;-73
2023/03/26 13:47:04;;;;;;;3.30;2.13;;;;;;;;;;5076687;28;20475;-73
2023/03/26 13:49:36;;;;;;;3.50;2.23;;;;;;;;;;5077973;28;20455;-73
2023/03/26 13:52:08;;;;;;;4.00;1.97;;;;;;;;;;5077288;28;20478;-73
2023/03/26 13:54:38;;;;;;;2.17;1.60;;;;;;;;;;5076789;28;20488;-72
2023/03/26 13:57:10;;;;;;;2.00;1.40;;;;;;;;;;5077644;28;20445;-73
2023/03/26 13:59:39;;;;;;;8.97;5.17;;;;;;;;;;5078207;28;20444;-73
2023/03/26 14:02:11;;;;;;;5.77;3.87;;;;;;;;;;5078502;28;20475;-73
2023/03/26 14:04:42;;;;;;;6.10;3.90;;;;;;;;;;5078234;28;20805;-73
2023/03/26 14:07:14;;;;;;;4.93;3.10;;;;;;;;;;5076045;28;20834;-75
2023/03/26 14:09:44;;;;;;;5.00;3.60;;;;;;;;;;5074736;28;20451;-73
2023/03/26 14:12:32;;;;;;;4.80;3.07;;;;;;;;;;5074718;28;20475;-73
2023/03/26 14:15:01;;;;;;;4.03;2.87;;;;;;;;;;5072957;28;20487;-73
2023/03/26 14:17:35;;;;;;;5.73;4.10;;;;;;;;;;5074643;28;20456;-73
2023/03/26 14:20:24;;;;;;;5.10;3.40;;;;;;;;;;5074854;28;20823;-73
2023/03/26 14:22:58;;;;;;;4.37;3.13;;;;;;;;;;5075006;28;20436;-73
2023/03/26 14:25:31;;;;;;;6.33;3.77;;;;;;;;;;5074585;28;20438;-73
2023/03/26 14:28:04;;;;;;;3.63;1.67;;;;;;;;;;5074474;28;20448;-73
2023/03/26 14:30:49;;;;;;;5.47;2.80;;;;;;;;;;5074518;28;20432;-73
2023/03/26 14:33:27;;;;;;;4.00;2.07;;;;;;;;;;5074663;28;20428;-73
2023/03/26 14:35:59;;;;;;;2.57;1.70;;;;;;;;;;5074625;28;20968;-73
2023/03/26 14:38:45;;;;;;;1.97;1.50;;;;;;;;;;5074596;28;20444;-73
2023/03/26 14:41:21;;;;;;;6.00;2.03;;;;;;;;;;5074411;28;20475;-73
2023/03/26 14:44:18;;;;;;;2.03;1.50;;;;;;;;;;5074671;28;20897;-73
2023/03/26 14:46:52;;;;;;;3.70;1.70;;;;;;;;;;5074111;28;20432;-73
2023/03/26 14:49:27;;;;;;;3.07;2.33;;;;;;;;;;5074365;28;20438;-73
2023/03/26 14:52:04;;;;;;;3.63;1.80;;;;;;;;;;5073991;28;20516;-73
2023/03/26 14:54:32;;;;;;;2.00;1.60;;;;;;;;;;5074230;28;20578;-73
2023/03/26 14:57:18;;;;;;;2.30;1.50;;;;;;;;;;5073651;28;20452;-73
2023/03/26 14:59:59;;;;;;;4.07;1.60;;;;;;;;;;5074076;28;20937;-73
2023/03/26 15:02:45;;;;;;;2.97;1.50;;;;;;;;;;5074103;28;20486;-73
2023/03/26 15:05:38;;;;;;;3.50;1.50;;;;;;;;;;5074231;28;20885;-73
2023/03/26 15:08:25;;;;;;;2.77;1.60;;;;;;;;;;5074083;28;20913;-73
2023/03/26 15:10:58;;;;;;;1.83;1.27;;;;;;;;;;5073557;28;20471;-73